createdAt,value
2022-08-11T00:00:16.746Z,24.40
2022-08-11T00:02:52.664Z,24.50
2022-08-11T00:05:21.394Z,24.40
2022-08-11T00:07:53.765Z,24.40
2022-08-11T00:10:26.466Z,24.30
2022-08-11T00:13:00.120Z,24.30
2022-08-11T00:15:36.849Z,24.10
2022-08-11T00:18:04.011Z,24.10
2022-08-11T00:20:33.374Z,24.10
2022-08-11T00:23:06.174Z,24.10
2022-08-11T00:25:42.493Z,24.10
2022-08-11T00:28:32.031Z,24.00
2022-08-11T00:31:08.422Z,24.00
2022-08-11T00:33:44.627Z,23.90
2022-08-11T00:36:15.927Z,23.90
2022-08-11T00:38:45.200Z,23.90
2022-08-11T00:41:11.846Z,23.80
2022-08-11T00:43:53.759Z,23.80
2022-08-11T00:46:37.818Z,23.70
2022-08-11T00:49:23.868Z,23.70
2022-08-11T00:52:21.529Z,23.60
2022-08-11T00:54:59.867Z,23.50
2022-08-11T00:57:53.360Z,23.50
2022-08-11T01:00:23.301Z,23.40
2022-08-11T01:03:18.112Z,23.40
2022-08-11T01:06:23.345Z,23.40
2022-08-11T01:09:18.009Z,23.20
2022-08-11T01:12:18.841Z,23.20
2022-08-11T01:15:33.826Z,23.00
2022-08-11T01:18:22.407Z,22.90
2022-08-11T01:21:17.618Z,22.70
2022-08-11T01:24:05.738Z,22.60
2022-08-11T01:27:19.211Z,22.50
2022-08-11T01:30:20.627Z,22.30
2022-08-11T01:33:11.714Z,22.10
2022-08-11T01:36:42.170Z,22.00
2022-08-11T01:39:47.697Z,21.80
2022-08-11T01:43:02.490Z,21.60
2022-08-11T01:45:55.394Z,21.50
2022-08-11T01:48:40.938Z,21.50
2022-08-11T01:51:38.364Z,21.30
2022-08-11T01:54:20.483Z,21.20
2022-08-11T01:57:00.581Z,21.00
2022-08-11T01:59:38.110Z,21.10
2022-08-11T02:02:48.135Z,21.00
2022-08-11T02:05:45.966Z,21.00
2022-08-11T02:08:45.525Z,20.90
2022-08-11T02:11:37.638Z,20.80
2022-08-11T02:14:13.567Z,20.80
2022-08-11T02:17:02.328Z,20.70
2022-08-11T02:20:09.455Z,20.80
2022-08-11T02:24:04.468Z,20.80
2022-08-11T02:26:27.787Z,20.80
2022-08-11T02:29:13.641Z,20.70
2022-08-11T02:32:23.851Z,20.70
2022-08-11T02:35:02.348Z,20.60
2022-08-11T02:37:31.953Z,20.60
2022-08-11T02:39:58.551Z,20.50
2022-08-11T02:42:49.469Z,20.60
2022-08-11T02:45:31.495Z,20.60
2022-08-11T02:48:21.307Z,20.50
2022-08-11T02:50:55.077Z,20.60
2022-08-11T02:53:56.443Z,20.60
2022-08-11T02:56:52.988Z,20.50
2022-08-11T02:59:53.051Z,20.40
2022-08-11T03:02:31.318Z,20.30
2022-08-11T03:05:11.834Z,20.20
2022-08-11T03:08:08.205Z,20.10
2022-08-11T03:11:15.570Z,20.00
2022-08-11T03:14:24.360Z,20.00
2022-08-11T03:17:00.268Z,19.90
2022-08-11T03:20:00.021Z,19.90
2022-08-11T03:22:34.090Z,19.80
2022-08-11T03:25:19.611Z,19.60
2022-08-11T03:27:57.810Z,19.40
2022-08-11T03:30:41.944Z,19.40
2022-08-11T03:33:54.218Z,19.40
2022-08-11T03:37:15.147Z,19.30
2022-08-11T03:40:04.237Z,19.30
2022-08-11T03:42:46.337Z,19.30
2022-08-11T03:45:40.744Z,19.40
2022-08-11T03:48:22.881Z,19.30
2022-08-11T03:51:07.518Z,19.20
2022-08-11T03:54:00.497Z,19.10
2022-08-11T03:56:48.522Z,19.20
2022-08-11T03:59:28.673Z,19.30
2022-08-11T04:02:19.313Z,19.40
2022-08-11T04:05:34.183Z,19.40
2022-08-11T04:08:24.946Z,19.40
2022-08-11T04:11:28.693Z,19.40
2022-08-11T04:14:50.047Z,19.40
2022-08-11T04:17:36.720Z,19.20
2022-08-11T04:20:29.369Z,19.20
2022-08-11T04:24:35.990Z,19.10
2022-08-11T04:26:50.952Z,19.00
2022-08-11T04:30:03.345Z,19.00
2022-08-11T04:33:11.470Z,19.00
2022-08-11T04:36:09.656Z,19.10
2022-08-11T04:39:14.319Z,19.00
2022-08-11T04:42:18.212Z,19.00
2022-08-11T04:45:06.430Z,19.00
2022-08-11T04:48:37.605Z,19.00
2022-08-11T04:51:38.058Z,19.10
2022-08-11T04:54:45.289Z,19.20
2022-08-11T04:57:46.794Z,19.20
2022-08-11T05:00:36.430Z,19.30
2022-08-11T05:03:30.818Z,19.30
2022-08-11T05:06:29.630Z,19.40
2022-08-11T05:09:46.357Z,19.50
2022-08-11T05:12:36.341Z,19.50
2022-08-11T05:15:23.065Z,19.50
2022-08-11T05:18:27.504Z,19.50
2022-08-11T05:21:15.290Z,19.60
2022-08-11T05:24:05.949Z,19.70
2022-08-11T05:27:04.458Z,19.70
2022-08-11T05:30:05.890Z,19.80
2022-08-11T05:33:00.926Z,19.80
2022-08-11T05:36:00.040Z,19.90
2022-08-11T05:38:51.785Z,19.90
2022-08-11T05:41:40.807Z,20.00
2022-08-11T05:44:29.233Z,20.10
2022-08-11T05:47:15.380Z,20.10
2022-08-11T05:50:01.045Z,20.10
2022-08-11T05:52:49.233Z,20.20
2022-08-11T05:56:01.850Z,20.40
2022-08-11T05:58:42.251Z,20.50
2022-08-11T06:01:20.652Z,20.60
2022-08-11T06:04:12.733Z,20.70
2022-08-11T06:06:51.525Z,20.80
2022-08-11T06:09:48.275Z,21.00
2022-08-11T06:12:25.710Z,21.10
2022-08-11T06:14:57.910Z,21.30
2022-08-11T06:17:38.473Z,21.40
2022-08-11T06:20:12.998Z,21.50
2022-08-11T06:22:44.085Z,21.60
2022-08-11T06:25:13.093Z,21.70
2022-08-11T06:27:44.149Z,21.90
2022-08-11T06:30:14.054Z,21.90
2022-08-11T06:32:46.029Z,22.10
2022-08-11T06:35:50.076Z,22.20
2022-08-11T06:38:44.678Z,22.40
2022-08-11T06:41:30.590Z,22.60
2022-08-11T06:44:18.732Z,22.60
2022-08-11T06:46:51.357Z,22.80
2022-08-11T06:49:42.754Z,23.00
2022-08-11T06:52:45.188Z,23.00
2022-08-11T06:55:55.910Z,23.10
2022-08-11T06:58:22.539Z,23.30
2022-08-11T07:00:54.616Z,23.40
2022-08-11T07:03:22.274Z,23.50
2022-08-11T07:06:07.112Z,23.50
2022-08-11T07:09:07.615Z,23.60
2022-08-11T07:12:01.966Z,23.70
2022-08-11T07:14:49.837Z,23.80
2022-08-11T07:17:22.339Z,23.90
2022-08-11T07:20:14.833Z,23.90
2022-08-11T07:23:03.397Z,24.00
2022-08-11T07:25:50.685Z,24.10
2022-08-11T07:28:44.854Z,24.20
2022-08-11T07:31:17.605Z,24.30
2022-08-11T07:34:08.529Z,24.40
2022-08-11T07:36:44.516Z,24.40
2022-08-11T07:39:25.615Z,24.50
2022-08-11T07:41:54.117Z,24.50
2022-08-11T07:44:27.360Z,24.60
2022-08-11T07:47:16.851Z,24.80
2022-08-11T07:50:07.728Z,24.90
2022-08-11T07:52:38.048Z,25.00
2022-08-11T07:55:07.790Z,25.10
2022-08-11T07:58:15.974Z,25.20
2022-08-11T08:01:10.131Z,25.30
2022-08-11T08:03:57.050Z,25.50
2022-08-11T08:06:43.525Z,25.60
2022-08-11T08:09:29.430Z,25.70
2022-08-11T08:12:16.034Z,25.90
2022-08-11T08:15:01.615Z,26.00
2022-08-11T08:18:20.996Z,26.20
2022-08-11T08:20:42.703Z,26.20
2022-08-11T08:23:09.841Z,26.30
2022-08-11T08:25:39.797Z,26.40
2022-08-11T08:28:14.109Z,26.50
2022-08-11T08:30:48.109Z,26.60
2022-08-11T08:33:24.800Z,26.60
2022-08-11T08:36:12.160Z,26.70
2022-08-11T08:38:52.765Z,26.90
2022-08-11T08:41:32.176Z,27.00
2022-08-11T08:44:36.721Z,27.10
2022-08-11T08:46:56.631Z,27.10
2022-08-11T08:49:31.910Z,27.20
2022-08-11T08:52:26.184Z,27.30
2022-08-11T08:54:55.666Z,27.40
2022-08-11T08:57:29.017Z,27.60
2022-08-11T08:59:57.866Z,27.60
2022-08-11T09:02:33.936Z,27.70
2022-08-11T09:05:04.946Z,27.80
2022-08-11T09:07:38.589Z,27.90
2022-08-11T09:10:07.981Z,28.00
2022-08-11T09:12:38.891Z,28.00
2022-08-11T09:15:09.060Z,28.20
2022-08-11T09:17:46.979Z,28.20
2022-08-11T09:20:25.717Z,28.40
2022-08-11T09:24:07.456Z,28.50
2022-08-11T09:26:30.381Z,28.50
2022-08-11T09:28:58.996Z,28.50
2022-08-11T09:31:26.898Z,28.70
2022-08-11T09:33:55.197Z,28.70
2022-08-11T09:36:42.287Z,28.80
2022-08-11T09:39:31.219Z,28.80
2022-08-11T09:42:04.299Z,28.80
2022-08-11T09:44:50.117Z,28.90
2022-08-11T09:47:25.525Z,29.20
2022-08-11T09:50:00.149Z,29.30
2022-08-11T09:52:29.571Z,29.30
2022-08-11T09:54:56.765Z,29.20
2022-08-11T09:57:43.343Z,29.30
2022-08-11T10:00:14.088Z,29.20
2022-08-11T10:02:47.158Z,29.30
2022-08-11T10:05:41.169Z,29.40
2022-08-11T10:08:11.916Z,29.70
2022-08-11T10:10:41.109Z,29.70
2022-08-11T10:14:31.391Z,29.70
2022-08-11T10:16:15.574Z,29.90
2022-08-11T10:18:52.448Z,30.30
2022-08-11T10:21:43.944Z,30.50
2022-08-11T10:27:15.741Z,30.10
2022-08-11T10:30:01.470Z,30.00
2022-08-11T10:32:58.734Z,30.00
2022-08-11T10:35:29.599Z,30.10
2022-08-11T10:38:08.084Z,30.10
2022-08-11T10:40:39.413Z,30.00
2022-08-11T10:43:13.142Z,29.80
2022-08-11T10:46:01.495Z,29.60
2022-08-11T10:48:32.030Z,29.70
2022-08-11T10:51:14.518Z,29.60
2022-08-11T10:54:05.406Z,29.60
2022-08-11T10:56:55.442Z,29.60
2022-08-11T10:59:24.418Z,29.60
2022-08-11T11:01:53.335Z,29.40
2022-08-11T11:04:40.207Z,29.60
2022-08-11T11:07:31.482Z,29.40
2022-08-11T11:10:04.626Z,29.40
2022-08-11T11:12:53.813Z,29.20
2022-08-11T11:15:40.787Z,29.30
2022-08-11T11:18:16.174Z,29.20
2022-08-11T11:20:47.861Z,29.10
2022-08-11T11:23:23.948Z,29.00
2022-08-11T11:26:27.050Z,29.10
2022-08-11T11:29:12.888Z,29.00
2022-08-11T11:32:01.501Z,29.00
2022-08-11T11:35:04.130Z,29.00
2022-08-11T11:37:36.381Z,28.90
2022-08-11T11:40:12.525Z,28.80
2022-08-11T11:42:45.417Z,28.80
2022-08-11T11:45:24.104Z,28.90
2022-08-11T11:47:54.296Z,28.90
2022-08-11T11:50:31.793Z,29.00
2022-08-11T11:53:01.610Z,28.90
2022-08-11T11:55:29.473Z,29.00
2022-08-11T11:58:18.647Z,28.90
2022-08-11T12:01:05.282Z,28.90
2022-08-11T12:03:34.386Z,28.90
2022-08-11T12:06:03.297Z,28.90
2022-08-11T12:08:31.212Z,28.80
2022-08-11T12:11:29.480Z,28.80
2022-08-11T12:14:00.395Z,28.90
2022-08-11T12:16:34.558Z,28.90
2022-08-11T12:19:08.290Z,28.90
2022-08-11T12:21:37.097Z,28.90
2022-08-11T12:24:28.546Z,28.80
2022-08-11T12:27:17.630Z,28.90
2022-08-11T12:30:05.785Z,28.90
2022-08-11T12:32:36.270Z,29.00
2022-08-11T12:35:05.250Z,29.10
2022-08-11T12:37:36.438Z,29.10
2022-08-11T12:40:49.617Z,29.00
2022-08-11T12:43:41.005Z,29.00
2022-08-11T12:46:10.384Z,29.00
2022-08-11T12:49:03.253Z,29.00
2022-08-11T12:52:01.387Z,29.10
2022-08-11T12:54:43.646Z,29.00
2022-08-11T12:57:45.790Z,29.00
2022-08-11T13:00:34.691Z,29.00
2022-08-11T13:03:21.580Z,29.00
2022-08-11T13:05:52.307Z,29.10
2022-08-11T13:08:23.171Z,29.10
2022-08-11T13:11:09.665Z,29.20
2022-08-11T13:13:55.312Z,29.30
2022-08-11T13:16:27.878Z,29.40
2022-08-11T13:18:56.803Z,29.30
2022-08-11T13:21:24.113Z,29.30
2022-08-11T13:24:00.734Z,29.40
2022-08-11T13:26:48.081Z,29.40
2022-08-11T13:29:28.690Z,29.40
2022-08-11T13:31:59.882Z,29.40
2022-08-11T13:34:30.972Z,29.30
2022-08-11T13:37:01.534Z,29.40
2022-08-11T13:39:30.919Z,29.40
2022-08-11T13:42:00.435Z,29.40
2022-08-11T13:44:30.205Z,29.50
2022-08-11T13:47:01.231Z,29.50
2022-08-11T13:49:29.552Z,29.50
2022-08-11T13:51:58.446Z,29.40
2022-08-11T13:54:32.064Z,29.30
2022-08-11T13:57:09.111Z,29.30
2022-08-11T13:59:49.934Z,29.40
2022-08-11T14:02:29.346Z,29.40
2022-08-11T14:04:58.919Z,29.50
2022-08-11T14:07:35.326Z,29.50
2022-08-11T14:10:04.081Z,29.50
2022-08-11T14:12:53.047Z,29.50
2022-08-11T14:15:21.367Z,29.50
2022-08-11T14:17:56.068Z,29.60
2022-08-11T14:20:38.013Z,29.60
2022-08-11T14:23:08.062Z,29.50
2022-08-11T14:25:59.537Z,29.50
2022-08-11T14:28:30.943Z,29.60
2022-08-11T14:31:02.877Z,29.60
2022-08-11T14:33:58.062Z,29.70
2022-08-11T14:36:22.740Z,29.60
2022-08-11T14:38:50.082Z,29.50
2022-08-11T14:41:36.998Z,29.50
2022-08-11T14:44:43.662Z,29.60
2022-08-11T14:47:23.066Z,29.70
2022-08-11T14:49:58.278Z,29.70
2022-08-11T14:52:37.692Z,29.70
2022-08-11T14:55:23.906Z,29.60
2022-08-11T14:57:54.852Z,29.50
2022-08-11T15:00:24.051Z,29.50
2022-08-11T15:03:09.970Z,29.40
2022-08-11T15:05:56.092Z,29.40
2022-08-11T15:08:46.033Z,29.50
2022-08-11T15:11:33.946Z,29.60
2022-08-11T15:14:03.709Z,29.50
2022-08-11T15:16:49.597Z,29.60
2022-08-11T15:19:21.139Z,29.60
2022-08-11T15:22:08.239Z,29.60
2022-08-11T15:24:36.464Z,29.70
2022-08-11T15:27:30.867Z,29.80
2022-08-11T15:30:32.927Z,29.80
2022-08-11T15:33:30.722Z,29.90
2022-08-11T15:36:17.587Z,29.80
2022-08-11T15:38:55.305Z,29.80
2022-08-11T15:41:54.337Z,29.90
2022-08-11T15:45:04.652Z,29.90
2022-08-11T15:48:05.193Z,30.00
2022-08-11T15:50:37.532Z,29.90
2022-08-11T15:53:31.807Z,29.80
2022-08-11T15:56:00.086Z,29.90
2022-08-11T15:59:40.776Z,29.90
2022-08-11T16:01:59.408Z,29.90
2022-08-11T16:04:30.080Z,29.90
2022-08-11T16:07:11.532Z,30.00
2022-08-11T16:10:07.484Z,30.00
2022-08-11T16:12:41.546Z,30.00
2022-08-11T16:15:29.433Z,29.90
2022-08-11T16:18:06.039Z,29.80
2022-08-11T16:20:34.764Z,29.80
2022-08-11T16:23:04.693Z,29.90
2022-08-11T16:27:04.997Z,29.90
2022-08-11T16:28:23.494Z,29.90
2022-08-11T16:30:52.175Z,29.90
2022-08-11T16:33:48.772Z,29.90
2022-08-11T16:36:30.438Z,29.90
2022-08-11T16:38:59.310Z,29.90
2022-08-11T16:41:47.984Z,29.90
2022-08-11T16:44:37.773Z,29.90
2022-08-11T16:47:13.213Z,29.90
2022-08-11T16:49:52.570Z,29.70
2022-08-11T16:52:24.427Z,29.70
2022-08-11T16:54:52.674Z,29.70
2022-08-11T16:57:45.746Z,29.70
2022-08-11T17:00:16.282Z,29.70
2022-08-11T17:03:08.113Z,29.70
2022-08-11T17:05:55.241Z,29.70
2022-08-11T17:08:57.628Z,29.70
2022-08-11T17:11:47.773Z,29.70
2022-08-11T17:14:35.727Z,29.70
2022-08-11T17:17:06.124Z,29.70
2022-08-11T17:20:42.070Z,29.70
2022-08-11T17:22:42.441Z,29.70
2022-08-11T17:25:11.105Z,29.70
2022-08-11T17:27:39.678Z,29.60
2022-08-11T17:30:08.548Z,29.60
2022-08-11T17:33:00.713Z,29.60
2022-08-11T17:35:38.725Z,29.60
2022-08-11T17:38:13.228Z,29.60
2022-08-11T17:41:23.221Z,29.60
2022-08-11T17:44:09.657Z,29.50
2022-08-11T17:46:56.940Z,29.50
2022-08-11T17:49:24.950Z,29.40
2022-08-11T17:52:11.713Z,29.40
2022-08-11T17:55:01.282Z,29.40
2022-08-11T17:57:51.829Z,29.40
2022-08-11T18:00:18.577Z,29.40
2022-08-11T18:03:06.597Z,29.30
2022-08-11T18:05:36.974Z,29.30
2022-08-11T18:08:26.720Z,29.20
2022-08-11T18:11:22.365Z,29.20
2022-08-11T18:14:24.333Z,29.10
2022-08-11T18:17:09.627Z,29.10
2022-08-11T18:19:54.926Z,29.10
2022-08-11T18:22:46.848Z,29.10
2022-08-11T18:25:35.919Z,29.00
2022-08-11T18:28:27.242Z,29.00
2022-08-11T18:31:17.827Z,28.90
2022-08-11T18:34:09.844Z,28.80
2022-08-11T18:37:09.968Z,28.80
2022-08-11T18:40:12.011Z,28.70
2022-08-11T18:43:00.374Z,28.60
2022-08-11T18:45:46.294Z,28.50
2022-08-11T18:48:40.781Z,28.50
2022-08-11T18:51:36.799Z,28.40
2022-08-11T18:54:28.034Z,28.30
2022-08-11T18:57:16.367Z,28.20
2022-08-11T19:00:03.761Z,28.20
2022-08-11T19:02:50.748Z,28.10
2022-08-11T19:06:32.059Z,28.00
2022-08-11T19:08:49.673Z,27.90
2022-08-11T19:11:42.532Z,27.80
2022-08-11T19:14:30.739Z,27.70
2022-08-11T19:17:45.192Z,27.60
2022-08-11T19:20:27.329Z,27.50
2022-08-11T19:23:14.842Z,27.40
2022-08-11T19:26:02.273Z,27.40
2022-08-11T19:28:48.179Z,27.30
2022-08-11T19:31:34.205Z,27.30
2022-08-11T19:34:20.241Z,27.10
2022-08-11T19:37:06.816Z,27.00
2022-08-11T19:39:53.396Z,27.00
2022-08-11T19:42:39.996Z,26.80
2022-08-11T19:45:26.751Z,26.80
2022-08-11T19:48:31.192Z,26.70
2022-08-11T19:51:19.053Z,26.60
2022-08-11T19:54:07.320Z,26.50
2022-08-11T19:56:53.816Z,26.20
2022-08-11T19:59:41.227Z,26.20
2022-08-11T20:02:26.762Z,26.20
2022-08-11T20:05:12.256Z,26.10
2022-08-11T20:07:58.578Z,26.10
2022-08-11T20:10:45.988Z,26.10
2022-08-11T20:13:33.544Z,26.20
2022-08-11T20:16:21.284Z,26.20
2022-08-11T20:19:09.693Z,26.30
2022-08-11T20:21:58.340Z,26.30
2022-08-11T20:24:43.826Z,26.40
2022-08-11T20:27:30.890Z,26.50
2022-08-11T20:30:18.800Z,26.50
2022-08-11T20:33:04.911Z,26.60
2022-08-11T20:35:52.839Z,26.70
2022-08-11T20:38:40.228Z,26.70
2022-08-11T20:41:28.803Z,26.70
2022-08-11T20:44:16.840Z,26.70
2022-08-11T20:47:04.392Z,26.70
2022-08-11T20:49:59.908Z,26.70
2022-08-11T20:52:50.441Z,26.70
2022-08-11T20:55:51.151Z,26.60
2022-08-11T21:01:46.176Z,26.60
2022-08-11T21:04:32.922Z,26.60
2022-08-11T21:07:23.661Z,26.60
2022-08-11T21:10:23.346Z,26.60
2022-08-11T21:13:26.458Z,26.60
2022-08-11T21:16:26.163Z,26.60
2022-08-11T21:19:18.670Z,26.50
2022-08-11T21:22:06.513Z,26.50
2022-08-11T21:24:52.614Z,26.50
2022-08-11T21:27:40.050Z,26.50
2022-08-11T21:30:26.091Z,26.50
2022-08-11T21:33:12.605Z,26.50
2022-08-11T21:35:58.492Z,26.40
2022-08-11T21:38:45.485Z,26.40
2022-08-11T21:41:32.974Z,26.30
2022-08-11T21:44:18.947Z,26.30
2022-08-11T21:47:05.452Z,26.20
2022-08-11T21:49:52.266Z,26.30
2022-08-11T21:52:38.028Z,26.20
2022-08-11T21:55:23.576Z,26.20
2022-08-11T21:58:10.719Z,26.20
2022-08-11T22:00:56.070Z,26.20
2022-08-11T22:03:50.327Z,26.20
2022-08-11T22:06:36.875Z,26.20
2022-08-11T22:09:22.335Z,26.20
2022-08-11T22:12:30.107Z,26.20
2022-08-11T22:15:14.404Z,26.20
2022-08-11T22:18:00.078Z,26.00
2022-08-11T22:20:46.393Z,26.00
2022-08-11T22:23:36.970Z,26.00
2022-08-11T22:26:23.207Z,25.90
2022-08-11T22:29:09.851Z,25.80
2022-08-11T22:31:57.413Z,25.80
2022-08-11T22:34:51.833Z,25.90
2022-08-11T22:37:40.298Z,25.80
2022-08-11T22:40:27.881Z,25.80
2022-08-11T22:43:13.347Z,25.70
2022-08-11T22:45:58.861Z,25.60
2022-08-11T22:48:48.177Z,25.60
2022-08-11T22:51:34.386Z,25.60
2022-08-11T22:54:21.665Z,25.50
2022-08-11T22:57:07.556Z,25.60
2022-08-11T22:59:55.140Z,25.50
2022-08-11T23:02:40.860Z,25.60
2022-08-11T23:05:27.185Z,25.60
2022-08-11T23:08:15.193Z,25.50
2022-08-11T23:11:01.208Z,25.50
2022-08-11T23:13:48.813Z,25.60
2022-08-11T23:16:35.129Z,25.50
2022-08-11T23:20:06.485Z,25.50
2022-08-11T23:22:49.326Z,25.50
2022-08-11T23:25:32.779Z,25.50
2022-08-11T23:28:20.210Z,25.50
2022-08-11T23:31:08.370Z,25.40
2022-08-11T23:33:58.356Z,25.40
2022-08-11T23:36:47.067Z,25.30
2022-08-11T23:39:33.850Z,25.30
2022-08-11T23:42:19.521Z,25.30
2022-08-11T23:45:07.169Z,25.30
2022-08-11T23:47:57.838Z,25.30
2022-08-11T23:50:43.789Z,25.20
2022-08-11T23:53:30.917Z,25.20
2022-08-11T23:56:17.303Z,25.20
2022-08-11T23:59:09.100Z,25.10
